createdAt,value
2023-01-10T00:01:52.015Z,21.92
2023-01-10T00:04:19.781Z,23.63
2023-01-10T00:06:47.128Z,20.03
2023-01-10T00:09:14.496Z,18.67
2023-01-10T00:12:00.937Z,22.53
2023-01-10T00:14:29.237Z,18.33
2023-01-10T00:16:57.363Z,19.15
2023-01-10T00:19:25.057Z,17.95
2023-01-10T00:21:52.527Z,18.02
2023-01-10T00:24:20.185Z,18.10
2023-01-10T00:26:51.303Z,19.50
2023-01-10T00:29:24.084Z,16.12
2023-01-10T00:31:51.661Z,17.87
2023-01-10T00:34:19.143Z,15.83
2023-01-10T00:36:47.983Z,19.12
2023-01-10T00:39:16.214Z,18.75
2023-01-10T00:42:02.370Z,20.37
2023-01-10T00:46:57.074Z,16.62
2023-01-10T00:49:24.499Z,14.60
2023-01-10T00:51:52.232Z,10.63
2023-01-10T00:54:19.588Z,14.63
2023-01-10T00:56:46.966Z,12.53
2023-01-10T00:59:14.694Z,10.60
2023-01-10T01:01:42.142Z,11.27
2023-01-10T01:04:09.639Z,12.57
2023-01-10T01:06:37.378Z,13.17
2023-01-10T01:09:04.698Z,11.27
2023-01-10T01:11:32.109Z,10.23
2023-01-10T01:13:59.730Z,8.87
2023-01-10T01:16:27.052Z,11.73
2023-01-10T01:18:54.505Z,11.40
2023-01-10T01:21:22.136Z,8.40
2023-01-10T01:23:51.071Z,9.20
2023-01-10T01:26:18.416Z,8.40
2023-01-10T01:28:46.043Z,7.33
2023-01-10T01:31:13.464Z,8.47
2023-01-10T01:33:40.853Z,7.17
2023-01-10T01:36:11.434Z,5.73
2023-01-10T01:38:39.227Z,6.37
2023-01-10T01:41:29.459Z,5.97
2023-01-10T01:44:04.964Z,5.70
2023-01-10T01:46:32.792Z,5.73
2023-01-10T01:49:00.443Z,4.70
2023-01-10T01:51:28.619Z,5.60
2023-01-10T01:53:57.333Z,5.63
2023-01-10T01:56:24.836Z,5.17
2023-01-10T01:58:58.023Z,5.40
2023-01-10T02:01:25.701Z,4.60
2023-01-10T02:03:55.612Z,3.80
2023-01-10T02:06:23.778Z,5.27
2023-01-10T02:08:55.065Z,4.83
2023-01-10T02:11:22.692Z,4.03
2023-01-10T02:13:50.057Z,4.47
2023-01-10T02:16:17.594Z,4.10
2023-01-10T02:18:45.190Z,3.23
2023-01-10T02:21:48.266Z,3.73
2023-01-10T02:24:26.522Z,3.27
2023-01-10T02:27:20.408Z,4.03
2023-01-10T02:29:53.295Z,3.33
2023-01-10T02:32:35.474Z,3.60
2023-01-10T02:35:18.712Z,5.07
2023-01-10T02:38:14.088Z,2.40
2023-01-10T02:41:02.158Z,3.10
2023-01-10T02:43:32.552Z,4.67
2023-01-10T02:46:05.724Z,3.30
2023-01-10T02:48:33.138Z,2.73
2023-01-10T02:51:04.978Z,2.40
2023-01-10T02:53:37.811Z,2.97
2023-01-10T02:56:25.155Z,3.10
2023-01-10T02:59:22.913Z,2.90
2023-01-10T03:01:56.971Z,2.63
2023-01-10T03:04:46.158Z,2.87
2023-01-10T03:07:22.875Z,3.83
2023-01-10T03:12:27.502Z,3.20
2023-01-10T03:14:55.367Z,2.87
2023-01-10T03:17:22.959Z,3.60
2023-01-10T03:19:51.756Z,3.63
2023-01-10T03:22:19.111Z,2.57
2023-01-10T03:24:48.672Z,2.67
2023-01-10T03:27:20.382Z,2.20
2023-01-10T03:29:54.976Z,4.97
2023-01-10T03:32:24.796Z,2.33
2023-01-10T03:34:52.421Z,7.57
2023-01-10T03:37:41.142Z,2.90
2023-01-10T03:40:22.481Z,3.10
2023-01-10T03:43:24.375Z,2.60
2023-01-10T03:46:10.637Z,4.63
2023-01-10T03:48:39.506Z,2.40
2023-01-10T03:51:07.204Z,2.37
2023-01-10T03:53:34.581Z,3.13
2023-01-10T03:56:01.960Z,3.67
2023-01-10T03:58:29.759Z,3.37
2023-01-10T04:00:57.301Z,3.03
2023-01-10T04:03:25.108Z,4.40
2023-01-10T04:05:52.482Z,3.30
2023-01-10T04:08:19.801Z,3.23
2023-01-10T04:10:49.469Z,3.50
2023-01-10T04:13:16.847Z,3.30
2023-01-10T04:15:44.207Z,2.37
2023-01-10T04:18:13.152Z,3.43
2023-01-10T04:20:40.510Z,2.50
2023-01-10T04:23:07.861Z,3.33
2023-01-10T04:25:35.475Z,3.30
2023-01-10T04:28:02.876Z,2.87
2023-01-10T04:30:30.304Z,3.00
2023-01-10T04:32:57.873Z,3.07
2023-01-10T04:35:25.360Z,2.50
2023-01-10T04:37:52.776Z,3.70
2023-01-10T04:40:23.398Z,2.63
2023-01-10T04:42:50.807Z,2.30
2023-01-10T04:45:20.309Z,2.73
2023-01-10T04:47:51.673Z,3.60
2023-01-10T04:50:19.112Z,2.70
2023-01-10T04:52:46.477Z,2.43
2023-01-10T04:55:14.199Z,1.80
2023-01-10T04:57:41.525Z,3.00
2023-01-10T05:00:09.784Z,3.33
2023-01-10T05:02:42.848Z,3.40
2023-01-10T05:05:13.781Z,1.67
2023-01-10T05:07:41.383Z,2.87
2023-01-10T05:10:09.532Z,2.20
2023-01-10T05:12:36.988Z,2.60
2023-01-10T05:15:05.427Z,1.63
2023-01-10T05:17:33.055Z,2.33
2023-01-10T05:20:00.401Z,2.80
2023-01-10T05:22:28.031Z,2.27
2023-01-10T05:24:55.402Z,1.60
2023-01-10T05:27:22.733Z,1.57
2023-01-10T05:29:50.338Z,2.70
2023-01-10T05:32:17.690Z,2.20
2023-01-10T05:34:45.034Z,5.40
2023-01-10T05:37:12.619Z,2.80
2023-01-10T05:39:41.463Z,2.80
2023-01-10T05:42:08.799Z,4.03
2023-01-10T05:44:36.413Z,3.23
2023-01-10T05:47:03.869Z,2.70
2023-01-10T05:49:32.947Z,2.47
2023-01-10T05:52:01.717Z,3.37
2023-01-10T05:54:29.798Z,2.93
2023-01-10T05:56:57.329Z,2.73
2023-01-10T05:59:28.690Z,3.13
2023-01-10T06:01:56.423Z,2.00
2023-01-10T06:04:24.068Z,2.13
2023-01-10T06:06:51.396Z,2.90
2023-01-10T06:09:18.747Z,3.63
2023-01-10T06:11:46.388Z,2.37
2023-01-10T06:14:18.993Z,2.37
2023-01-10T06:16:47.128Z,1.77
2023-01-10T06:19:14.550Z,3.93
2023-01-10T06:21:41.956Z,2.10
2023-01-10T06:24:09.823Z,3.43
2023-01-10T06:26:37.154Z,3.00
2023-01-10T06:29:04.521Z,2.53
2023-01-10T06:31:32.193Z,2.57
2023-01-10T06:33:59.824Z,3.23
2023-01-10T06:36:27.169Z,2.17
2023-01-10T06:38:54.774Z,3.20
2023-01-10T06:41:22.136Z,3.47
2023-01-10T06:43:49.531Z,3.00
2023-01-10T06:46:19.412Z,2.73
2023-01-10T06:48:46.981Z,2.50
2023-01-10T06:51:14.920Z,2.77
2023-01-10T06:53:42.910Z,3.20
2023-01-10T06:56:10.391Z,3.23
2023-01-10T06:58:41.342Z,2.90
2023-01-10T07:01:17.808Z,4.17
2023-01-10T07:03:45.511Z,3.12
2023-01-10T07:06:13.363Z,3.07
2023-01-10T07:08:41.784Z,3.00
2023-01-10T07:11:09.298Z,3.47
2023-01-10T07:13:36.933Z,3.17
2023-01-10T07:16:08.791Z,4.70
2023-01-10T07:18:36.422Z,5.83
2023-01-10T07:21:04.248Z,3.83
2023-01-10T07:23:31.695Z,5.13
2023-01-10T07:26:02.487Z,9.57
2023-01-10T07:28:30.120Z,4.07
2023-01-10T07:31:04.261Z,3.97
2023-01-10T07:33:32.057Z,4.50
2023-01-10T07:36:00.564Z,4.30
2023-01-10T07:38:28.367Z,5.93
2023-01-10T07:40:55.988Z,3.53
2023-01-10T07:43:23.340Z,2.90
2023-01-10T07:45:50.674Z,3.30
2023-01-10T07:48:18.281Z,8.87
2023-01-10T07:50:46.417Z,2.83
2023-01-10T07:53:13.870Z,3.03
2023-01-10T07:55:41.753Z,3.17
2023-01-10T07:58:09.137Z,2.77
2023-01-10T08:00:36.585Z,3.37
2023-01-10T08:03:04.457Z,1.87
2023-01-10T08:05:31.971Z,1.97
2023-01-10T08:08:10.526Z,4.13
2023-01-10T08:10:38.839Z,4.50
2023-01-10T08:13:17.730Z,2.77
2023-01-10T08:15:50.304Z,4.27
2023-01-10T08:18:18.327Z,3.47
2023-01-10T08:20:47.983Z,4.53
2023-01-10T08:23:15.691Z,2.43
2023-01-10T08:25:43.125Z,2.47
2023-01-10T08:28:10.467Z,2.07
2023-01-10T08:30:38.242Z,2.20
2023-01-10T08:33:06.411Z,2.07
2023-01-10T08:35:40.552Z,1.50
2023-01-10T08:38:08.556Z,3.53
2023-01-10T08:40:36.125Z,3.70
2023-01-10T08:43:05.132Z,4.77
2023-01-10T08:45:32.823Z,3.90
2023-01-10T08:48:00.166Z,5.60
2023-01-10T08:50:27.558Z,3.10
2023-01-10T08:52:58.115Z,3.93
2023-01-10T08:55:25.522Z,3.53
2023-01-10T08:57:53.112Z,4.70
2023-01-10T09:00:21.217Z,3.40
2023-01-10T09:02:48.629Z,3.23
2023-01-10T09:05:27.012Z,9.20
2023-01-10T09:07:59.717Z,3.17
2023-01-10T09:10:28.033Z,3.50
2023-01-10T09:12:57.215Z,3.23
2023-01-10T09:15:26.433Z,4.13
2023-01-10T09:18:01.289Z,2.97
2023-01-10T09:20:29.466Z,4.20
2023-01-10T09:22:57.188Z,4.53
2023-01-10T09:25:25.012Z,5.93
2023-01-10T09:27:59.355Z,2.90
2023-01-10T09:30:27.315Z,3.07
2023-01-10T09:32:55.337Z,2.37
2023-01-10T09:35:23.248Z,2.53
2023-01-10T09:37:50.619Z,3.23
2023-01-10T09:40:20.385Z,2.97
2023-01-10T09:43:07.300Z,2.17
2023-01-10T09:45:59.001Z,2.83
2023-01-10T09:48:31.919Z,2.87
2023-01-10T09:51:38.662Z,5.63
2023-01-10T09:54:12.822Z,5.70
2023-01-10T09:56:40.832Z,5.20
2023-01-10T09:59:29.835Z,3.00
2023-01-10T10:02:04.821Z,4.57
2023-01-10T10:04:35.634Z,4.70
2023-01-10T10:07:04.159Z,6.13
2023-01-10T10:09:33.407Z,3.80
2023-01-10T10:12:28.259Z,5.03
2023-01-10T10:15:04.828Z,3.43
2023-01-10T10:17:50.842Z,2.50
2023-01-10T10:20:42.900Z,1.80
2023-01-10T10:23:14.233Z,2.70
2023-01-10T10:25:51.872Z,2.60
2023-01-10T10:28:34.507Z,3.83
2023-01-10T10:31:25.301Z,2.70
2023-01-10T10:34:07.789Z,1.97
2023-01-10T10:37:02.918Z,1.83
2023-01-10T10:39:38.565Z,4.37
2023-01-10T10:42:06.856Z,3.37
2023-01-10T10:44:49.433Z,2.57
2023-01-10T10:47:18.677Z,3.47
2023-01-10T10:50:11.411Z,5.50
2023-01-10T10:52:39.154Z,6.70
2023-01-10T10:55:07.123Z,2.43
2023-01-10T10:57:35.388Z,2.30
2023-01-10T11:00:03.447Z,2.33
2023-01-10T11:02:32.708Z,3.50
2023-01-10T11:05:02.191Z,4.83
2023-01-10T11:07:34.249Z,3.83
2023-01-10T11:10:21.777Z,4.07
2023-01-10T11:12:51.192Z,3.57
2023-01-10T11:15:38.935Z,2.20
2023-01-10T11:18:17.314Z,2.43
2023-01-10T11:20:49.104Z,2.67
2023-01-10T11:23:40.731Z,3.27
2023-01-10T11:26:21.328Z,2.53
2023-01-10T11:28:48.940Z,3.40
2023-01-10T11:31:16.519Z,2.63
2023-01-10T11:33:43.955Z,2.83
2023-01-10T11:36:13.184Z,3.63
2023-01-10T11:38:59.028Z,2.10
2023-01-10T11:44:21.625Z,3.37
2023-01-10T11:46:49.513Z,2.70
2023-01-10T11:49:24.898Z,7.60
2023-01-10T11:51:53.004Z,3.85
2023-01-10T11:54:24.755Z,3.63
2023-01-10T11:56:59.197Z,3.53
2023-01-10T11:59:26.847Z,2.90
2023-01-10T12:02:35.813Z,4.90
2023-01-10T12:05:05.612Z,3.67
2023-01-10T12:07:56.278Z,2.90
2023-01-10T12:10:25.412Z,2.90
2023-01-10T12:12:58.174Z,4.50
2023-01-10T12:15:34.479Z,3.97
2023-01-10T12:18:03.325Z,5.78
2023-01-10T12:20:32.896Z,4.33
2023-01-10T12:23:13.511Z,4.50
2023-01-10T12:25:41.707Z,3.50
2023-01-10T12:28:29.081Z,3.00
2023-01-10T12:30:58.746Z,4.33
2023-01-10T12:33:37.725Z,7.43
2023-01-10T12:36:08.652Z,10.83
2023-01-10T12:39:03.802Z,13.00
2023-01-10T12:42:02.494Z,6.07
2023-01-10T12:44:45.603Z,7.33
2023-01-10T12:47:25.269Z,5.77
2023-01-10T12:50:00.221Z,5.40
2023-01-10T12:52:50.186Z,4.97
2023-01-10T12:55:22.138Z,5.73
2023-01-10T12:58:01.602Z,5.87
2023-01-10T13:00:32.863Z,4.40
2023-01-10T13:03:11.020Z,7.53
2023-01-10T13:05:38.463Z,7.00
2023-01-10T13:08:13.008Z,8.83
2023-01-10T13:10:51.433Z,5.13
2023-01-10T13:13:41.367Z,5.87
2023-01-10T13:16:29.247Z,8.80
2023-01-10T13:19:11.158Z,8.83
2023-01-10T13:21:39.455Z,9.37
2023-01-10T13:24:18.025Z,6.53
2023-01-10T13:26:58.630Z,5.27
2023-01-10T13:29:29.067Z,4.00
2023-01-10T13:32:01.401Z,6.03
2023-01-10T13:34:33.783Z,4.47
2023-01-10T13:37:27.432Z,4.43
2023-01-10T13:39:58.956Z,7.40
2023-01-10T13:42:52.481Z,5.20
2023-01-10T13:45:24.283Z,4.97
2023-01-10T13:47:54.551Z,5.23
2023-01-10T13:50:36.255Z,4.70
2023-01-10T13:53:08.479Z,4.47
2023-01-10T13:55:39.087Z,3.97
2023-01-10T13:58:09.232Z,4.07
2023-01-10T14:00:55.440Z,5.57
2023-01-10T14:03:46.006Z,6.00
2023-01-10T14:06:20.759Z,4.33
2023-01-10T14:08:53.774Z,4.93
2023-01-10T14:11:22.935Z,5.63
2023-01-10T14:13:53.948Z,5.33
2023-01-10T14:16:35.540Z,5.67
2023-01-10T14:19:05.149Z,6.23
2023-01-10T14:21:37.011Z,5.73
2023-01-10T14:24:04.780Z,7.53
2023-01-10T14:26:35.538Z,5.50
2023-01-10T14:29:08.704Z,5.20
2023-01-10T14:31:37.209Z,5.57
2023-01-10T14:34:06.077Z,4.63
2023-01-10T14:36:37.265Z,7.00
2023-01-10T14:39:06.403Z,7.97
2023-01-10T14:41:56.541Z,7.47
2023-01-10T14:44:54.410Z,5.40
2023-01-10T14:47:29.805Z,5.73
2023-01-10T14:50:01.563Z,5.00
2023-01-10T14:52:29.054Z,6.60
2023-01-10T14:55:13.205Z,6.00
2023-01-10T14:57:40.625Z,3.13
2023-01-10T15:00:18.028Z,6.00
2023-01-10T15:02:45.997Z,6.10
2023-01-10T15:05:27.000Z,5.57
2023-01-10T15:07:54.960Z,7.37
2023-01-10T15:10:30.495Z,5.60
2023-01-10T15:13:01.701Z,7.87
2023-01-10T15:15:31.733Z,7.27
2023-01-10T15:17:59.811Z,7.33
2023-01-10T15:20:27.196Z,6.43
2023-01-10T15:22:59.257Z,7.83
2023-01-10T15:25:28.259Z,9.60
2023-01-10T15:27:57.495Z,9.47
2023-01-10T15:30:35.520Z,8.27
2023-01-10T15:33:09.706Z,7.67
2023-01-10T15:35:38.004Z,8.20
2023-01-10T15:38:07.626Z,9.33
2023-01-10T15:40:36.692Z,9.00
2023-01-10T15:43:24.407Z,11.60
2023-01-10T15:45:53.155Z,9.87
2023-01-10T15:48:33.797Z,12.93
2023-01-10T15:51:03.788Z,12.37
2023-01-10T15:54:06.047Z,13.97
2023-01-10T15:56:39.454Z,9.30
2023-01-10T15:59:23.409Z,8.20
2023-01-10T16:01:55.906Z,9.27
2023-01-10T16:04:23.648Z,6.33
2023-01-10T16:06:52.619Z,5.87
2023-01-10T16:09:21.231Z,5.13
2023-01-10T16:12:11.098Z,7.80
2023-01-10T16:14:38.458Z,7.40
2023-01-10T16:17:06.217Z,4.93
2023-01-10T16:19:34.501Z,6.07
2023-01-10T16:22:01.895Z,5.53
2023-01-10T16:24:36.297Z,5.33
2023-01-10T16:27:05.752Z,7.40
2023-01-10T16:29:33.710Z,6.57
2023-01-10T16:32:01.147Z,4.00
2023-01-10T16:34:28.548Z,4.50
2023-01-10T16:36:56.436Z,5.37
2023-01-10T16:39:23.865Z,4.97
2023-01-10T16:42:09.958Z,4.27
2023-01-10T16:44:37.786Z,4.45
2023-01-10T16:47:07.055Z,5.53
2023-01-10T16:49:34.688Z,7.50
2023-01-10T16:52:03.579Z,6.47
2023-01-10T16:54:31.261Z,10.67
2023-01-10T16:56:58.610Z,10.27
2023-01-10T16:59:26.194Z,5.87
2023-01-10T17:01:55.315Z,5.47
2023-01-10T17:04:27.198Z,5.60
2023-01-10T17:06:56.685Z,4.33
2023-01-10T17:09:28.544Z,4.57
2023-01-10T17:12:07.262Z,5.93
2023-01-10T17:14:35.455Z,5.90
2023-01-10T17:17:03.181Z,3.20
2023-01-10T17:19:30.565Z,5.50
2023-01-10T17:21:57.985Z,5.70
2023-01-10T17:24:25.629Z,4.80
2023-01-10T17:26:53.002Z,4.60
2023-01-10T17:29:22.459Z,3.63
2023-01-10T17:31:50.990Z,6.23
2023-01-10T17:34:18.546Z,4.40
2023-01-10T17:36:45.952Z,4.20
2023-01-10T17:39:13.579Z,3.63
2023-01-10T17:41:40.907Z,4.10
2023-01-10T17:44:08.239Z,4.80
2023-01-10T17:46:35.951Z,6.37
2023-01-10T17:49:03.291Z,5.23
2023-01-10T17:51:30.742Z,8.40
2023-01-10T17:53:58.491Z,5.83
2023-01-10T17:56:25.847Z,6.57
2023-01-10T17:58:53.727Z,5.50
2023-01-10T18:01:25.217Z,6.50
2023-01-10T18:03:53.293Z,7.03
2023-01-10T18:06:25.147Z,5.23
2023-01-10T18:08:53.781Z,5.77
2023-01-10T18:11:22.825Z,7.00
2023-01-10T18:13:50.215Z,5.50
2023-01-10T18:16:17.948Z,7.63
2023-01-10T18:18:45.353Z,6.03
2023-01-10T18:21:13.693Z,5.97
2023-01-10T18:23:41.333Z,6.43
2023-01-10T18:26:10.163Z,5.40
2023-01-10T18:28:41.793Z,5.70
2023-01-10T18:31:17.497Z,6.13
2023-01-10T18:33:45.896Z,5.97
2023-01-10T18:36:21.356Z,7.03
2023-01-10T18:38:48.952Z,7.30
2023-01-10T18:41:16.870Z,6.30
2023-01-10T18:43:44.250Z,5.43
2023-01-10T18:46:13.269Z,5.03
2023-01-10T18:48:41.044Z,6.80
2023-01-10T18:51:10.034Z,6.27
2023-01-10T18:53:37.500Z,5.77
2023-01-10T18:56:05.444Z,7.43
2023-01-10T18:58:34.404Z,4.97
2023-01-10T19:01:06.482Z,5.30
2023-01-10T19:03:34.144Z,5.43
2023-01-10T19:06:02.261Z,4.03
2023-01-10T19:08:29.705Z,7.60
2023-01-10T19:11:12.259Z,6.80
2023-01-10T19:13:40.703Z,7.40
2023-01-10T19:16:18.818Z,6.73
2023-01-10T19:18:56.654Z,6.47
2023-01-10T19:21:24.659Z,8.00
2023-01-10T19:23:54.994Z,8.00
2023-01-10T19:26:22.612Z,6.37
2023-01-10T19:28:50.392Z,7.80
2023-01-10T19:31:18.815Z,5.97
2023-01-10T19:33:47.670Z,6.13
2023-01-10T19:36:15.942Z,8.43
2023-01-10T19:38:43.491Z,7.73
2023-01-10T19:41:11.088Z,7.60
2023-01-10T19:43:38.695Z,6.77
2023-01-10T19:46:10.268Z,9.07
2023-01-10T19:48:38.390Z,6.63
2023-01-10T19:51:11.188Z,7.57
2023-01-10T19:53:42.137Z,7.57
2023-01-10T19:56:10.324Z,7.27
2023-01-10T19:58:38.030Z,8.07
2023-01-10T20:01:09.822Z,8.83
2023-01-10T20:03:38.706Z,7.60
2023-01-10T20:06:06.439Z,7.73
2023-01-10T20:08:33.992Z,8.97
2023-01-10T20:11:05.607Z,9.10
2023-01-10T20:13:33.622Z,8.80
2023-01-10T20:16:01.225Z,9.33
2023-01-10T20:18:28.909Z,8.43
2023-01-10T20:20:56.585Z,9.60
2023-01-10T20:23:24.032Z,10.83
2023-01-10T20:25:59.045Z,7.40
2023-01-10T20:28:26.501Z,11.87
2023-01-10T20:30:54.149Z,9.13
2023-01-10T20:33:26.569Z,10.93
2023-01-10T20:36:04.704Z,9.77
2023-01-10T20:38:33.589Z,11.23
2023-01-10T20:41:02.494Z,10.77
2023-01-10T20:43:29.854Z,8.77
2023-01-10T20:45:57.295Z,11.63
2023-01-10T20:48:24.880Z,12.80
2023-01-10T20:50:52.236Z,9.33
2023-01-10T20:53:19.569Z,10.50
2023-01-10T20:55:59.083Z,9.73
2023-01-10T20:58:27.248Z,10.73
2023-01-10T21:00:54.838Z,11.60
2023-01-10T21:03:22.207Z,8.97
2023-01-10T21:05:50.674Z,9.40
2023-01-10T21:08:18.803Z,11.33
2023-01-10T21:10:46.497Z,10.17
2023-01-10T21:13:13.909Z,11.13
2023-01-10T21:15:43.569Z,9.97
2023-01-10T21:18:11.780Z,9.53
2023-01-10T21:20:42.821Z,8.23
2023-01-10T21:23:10.670Z,7.87
2023-01-10T21:25:38.133Z,10.17
2023-01-10T21:28:09.602Z,8.60
2023-01-10T21:30:37.440Z,8.30
2023-01-10T21:33:04.837Z,9.53
2023-01-10T21:35:32.985Z,12.07
2023-01-10T21:38:00.838Z,10.10
2023-01-10T21:40:28.658Z,12.87
2023-01-10T21:42:56.036Z,8.97
2023-01-10T21:45:23.824Z,11.17
2023-01-10T21:47:51.169Z,10.67
2023-01-10T21:50:21.390Z,10.47
2023-01-10T21:52:49.944Z,10.43
2023-01-10T21:55:17.324Z,11.80
2023-01-10T21:57:44.723Z,11.40
2023-01-10T22:00:12.738Z,13.97
2023-01-10T22:02:39.993Z,9.17
2023-01-10T22:05:08.160Z,8.60
2023-01-10T22:07:35.543Z,10.97
2023-01-10T22:10:03.611Z,9.57
2023-01-10T22:12:31.313Z,10.43
2023-01-10T22:14:58.715Z,10.13
2023-01-10T22:17:26.080Z,10.33
2023-01-10T22:19:53.699Z,11.07
2023-01-10T22:22:21.011Z,7.30
2023-01-10T22:24:48.468Z,8.53
2023-01-10T22:27:16.172Z,8.37
2023-01-10T22:29:43.620Z,10.63
2023-01-10T22:32:11.175Z,8.80
2023-01-10T22:34:38.771Z,8.40
2023-01-10T22:37:06.121Z,8.63
2023-01-10T22:39:33.520Z,13.97
2023-01-10T22:42:01.359Z,9.10
2023-01-10T22:44:28.779Z,9.50
2023-01-10T22:46:56.156Z,10.03
2023-01-10T22:49:23.877Z,11.70
2023-01-10T22:51:51.281Z,9.10
2023-01-10T22:54:18.683Z,11.37
2023-01-10T22:56:46.533Z,11.83
2023-01-10T22:59:26.081Z,9.83
2023-01-10T23:01:53.620Z,11.67
2023-01-10T23:04:22.040Z,10.00
2023-01-10T23:06:50.178Z,12.10
2023-01-10T23:09:17.880Z,11.57
2023-01-10T23:11:45.174Z,10.00
2023-01-10T23:14:12.521Z,10.77
2023-01-10T23:16:40.262Z,10.60
2023-01-10T23:19:07.560Z,10.83
2023-01-10T23:21:34.892Z,11.60
2023-01-10T23:24:02.576Z,11.43
2023-01-10T23:26:29.887Z,9.87
2023-01-10T23:28:57.162Z,10.20
2023-01-10T23:31:29.270Z,11.77
2023-01-10T23:33:57.033Z,9.77
2023-01-10T23:36:24.670Z,10.83
2023-01-10T23:38:52.117Z,13.13
2023-01-10T23:41:22.216Z,11.77
2023-01-10T23:43:50.157Z,11.87
2023-01-10T23:46:17.994Z,12.87
2023-01-10T23:48:46.464Z,12.90
2023-01-10T23:51:14.417Z,12.10
2023-01-10T23:53:41.803Z,11.50
2023-01-10T23:56:10.175Z,15.17
2023-01-10T23:58:37.710Z,10.30
